createdAt,value
2023-04-27T00:00:00.260Z,98511.12
2023-04-27T00:18:35.426Z,98447.85
2023-04-27T00:22:25.018Z,98428.52
2023-04-27T00:33:44.805Z,98432.55
2023-04-27T00:37:37.767Z,98429.04
2023-04-27T00:41:26.722Z,98418.42
2023-04-27T00:44:35.925Z,98417.11
2023-04-27T00:48:28.091Z,98423.27
2023-04-27T00:52:12.586Z,98407.13
2023-04-27T00:56:14.322Z,98392.46
2023-04-27T01:00:18.838Z,98393.42
2023-04-27T01:04:09.683Z,98392.23
2023-04-27T01:08:20.927Z,98377.27
2023-04-27T01:11:40.968Z,98372.52
2023-04-27T01:14:49.431Z,98372.98
2023-04-27T01:17:25.046Z,98367.66
2023-04-27T01:20:24.786Z,98385.36
2023-04-27T01:23:54.302Z,98393.96
2023-04-27T01:26:47.509Z,98386.75
2023-04-27T01:30:25.962Z,98384.80
2023-04-27T01:38:28.145Z,98356.16
2023-04-27T01:41:58.766Z,98356.27
2023-04-27T01:45:33.150Z,98363.70
2023-04-27T01:48:30.739Z,98383.05
2023-04-27T01:51:38.394Z,98359.85
2023-04-27T01:55:35.154Z,98331.83
2023-04-27T01:59:29.801Z,98324.91
2023-04-27T02:02:27.988Z,98318.17
2023-04-27T02:05:51.512Z,98316.67
2023-04-27T02:09:29.479Z,98364.63
2023-04-27T02:13:22.482Z,98351.66
2023-04-27T02:20:54.194Z,98262.48
2023-04-27T02:24:32.808Z,98246.66
2023-04-27T02:27:49.565Z,98246.61
2023-04-27T02:34:56.898Z,98228.44
2023-04-27T02:38:24.197Z,98238.05
2023-04-27T02:41:21.681Z,98279.15
2023-04-27T02:44:18.694Z,98266.27
2023-04-27T02:51:11.391Z,98274.25
2023-04-27T02:54:30.390Z,98278.90
2023-04-27T03:01:13.803Z,98285.59
2023-04-27T03:04:24.119Z,98282.20
2023-04-27T03:08:21.460Z,98287.21
2023-04-27T03:11:58.198Z,98270.94
2023-04-27T03:15:11.427Z,98284.33
2023-04-27T03:18:42.228Z,98270.55
2023-04-27T03:36:58.252Z,98236.94
2023-04-27T03:39:30.648Z,98254.66
2023-04-27T03:46:17.602Z,98269.69
2023-04-27T03:49:03.408Z,98263.91
2023-04-27T03:51:57.186Z,98260.95
2023-04-27T03:54:55.263Z,98266.61
2023-04-27T03:57:54.889Z,98261.34
2023-04-27T04:01:24.258Z,98271.92
2023-04-27T04:04:51.429Z,98279.76
2023-04-27T04:08:47.302Z,98277.88
2023-04-27T04:12:21.321Z,98282.09
2023-04-27T04:19:29.550Z,98245.83
2023-04-27T04:30:07.321Z,98158.17
2023-04-27T04:33:41.945Z,98134.69
2023-04-27T04:37:20.031Z,98139.33
2023-04-27T04:41:51.548Z,98131.08
2023-04-27T04:45:17.318Z,98144.59
2023-04-27T04:52:02.445Z,98186.09
2023-04-27T04:55:42.346Z,98202.61
2023-04-27T05:06:49.407Z,98149.36
2023-04-27T05:10:39.390Z,98144.00
2023-04-27T05:14:17.646Z,98136.27
2023-04-27T05:17:45.420Z,98128.13
2023-04-27T05:21:57.292Z,98118.73
2023-04-27T05:25:39.338Z,98101.03
2023-04-27T05:29:05.624Z,98104.30
2023-04-27T05:32:33.556Z,98116.94
2023-04-27T05:36:33.409Z,98124.22
2023-04-27T05:43:38.408Z,98167.39
2023-04-27T05:51:27.616Z,98191.61
2023-04-27T05:55:03.243Z,98191.72
2023-04-27T05:59:05.063Z,98257.88
2023-04-27T06:03:07.618Z,98260.05
2023-04-27T06:07:26.679Z,98284.70
2023-04-27T06:10:43.668Z,98323.87
2023-04-27T06:14:33.773Z,98363.38
2023-04-27T06:18:20.815Z,98397.07
2023-04-27T06:21:56.421Z,98421.13
2023-04-27T06:26:03.983Z,98426.50
2023-04-27T06:30:00.433Z,98409.02
2023-04-27T06:33:17.498Z,98382.10
2023-04-27T06:37:30.670Z,98407.17
2023-04-27T06:41:11.459Z,98420.22
2023-04-27T06:44:48.739Z,98437.11
2023-04-27T06:48:34.521Z,98474.11
2023-04-27T06:52:14.464Z,98473.66
2023-04-27T06:55:39.587Z,98446.03
2023-04-27T06:58:56.637Z,98468.29
2023-04-27T07:02:25.669Z,98480.38
2023-04-27T07:06:00.440Z,98514.30
2023-04-27T07:09:41.530Z,98526.28
2023-04-27T07:13:15.848Z,98512.14
2023-04-27T07:17:12.627Z,98491.83
2023-04-27T07:20:29.588Z,98564.64
2023-04-27T07:24:33.552Z,98550.86
2023-04-27T07:28:33.528Z,98541.00
2023-04-27T07:35:34.488Z,98549.63
2023-04-27T07:39:16.569Z,98516.78
2023-04-27T07:42:48.604Z,98536.52
2023-04-27T07:46:27.620Z,98537.77
2023-04-27T07:50:04.502Z,98539.66
2023-04-27T07:53:59.593Z,98535.01
2023-04-27T07:57:28.362Z,98540.42
2023-04-27T08:00:54.345Z,98508.79
2023-04-27T08:04:41.203Z,98502.61
2023-04-27T08:08:19.830Z,98536.15
2023-04-27T08:12:09.616Z,98512.73
2023-04-27T08:15:48.583Z,98541.88
2023-04-27T08:19:33.682Z,98524.97
2023-04-27T08:23:12.832Z,98557.27
2023-04-27T08:26:40.586Z,98524.59
2023-04-27T08:30:27.596Z,98486.77
2023-04-27T08:33:55.759Z,98480.64
2023-04-27T08:37:29.572Z,98473.90
2023-04-27T08:41:35.398Z,98497.85
2023-04-27T08:45:05.618Z,98473.89
2023-04-27T08:48:38.815Z,98460.10
2023-04-27T08:52:29.647Z,98481.90
2023-04-27T08:55:56.850Z,98485.02
2023-04-27T08:59:34.636Z,98448.55
2023-04-27T09:09:54.719Z,98525.77
2023-04-27T09:13:31.627Z,98467.77
2023-04-27T09:20:37.689Z,98514.73
2023-04-27T09:24:05.973Z,98501.75
2023-04-27T09:27:34.777Z,98508.80
2023-04-27T09:31:10.737Z,98482.19
2023-04-27T09:34:30.951Z,98527.82
2023-04-27T09:41:37.189Z,98770.02
2023-04-27T09:45:13.694Z,98771.48
2023-04-27T09:48:57.645Z,98861.26
2023-04-27T09:52:44.635Z,99056.75
2023-04-27T09:59:39.684Z,99115.54
2023-04-27T10:03:38.748Z,99122.96
2023-04-27T10:07:19.693Z,99150.66
2023-04-27T10:10:50.662Z,99162.70
2023-04-27T10:14:20.126Z,99123.23
2023-04-27T10:17:36.902Z,99096.06
2023-04-27T10:21:00.807Z,99072.08
2023-04-27T10:24:48.748Z,99081.99
2023-04-27T10:35:42.870Z,99206.16
2023-04-27T10:43:41.640Z,99260.84
2023-04-27T10:46:57.991Z,99271.81
2023-04-27T10:50:29.779Z,99259.63
2023-04-27T10:54:12.813Z,99266.71
2023-04-27T10:58:37.690Z,99261.08
2023-04-27T11:02:08.837Z,99265.05
2023-04-27T11:05:52.765Z,99267.45
2023-04-27T11:09:32.133Z,99268.66
2023-04-27T11:13:12.850Z,99264.59
2023-04-27T11:20:27.615Z,99263.27
2023-04-27T11:27:26.818Z,99251.76
2023-04-27T11:30:37.783Z,99255.58
2023-04-27T11:34:13.788Z,99252.83
2023-04-27T11:38:00.540Z,99258.98
2023-04-27T11:45:36.801Z,99254.32
2023-04-27T11:49:19.296Z,99243.79
2023-04-27T11:56:40.924Z,99231.44
2023-04-27T12:00:49.314Z,99236.77
2023-04-27T12:03:51.005Z,99232.08
2023-04-27T12:07:26.161Z,99231.86
2023-04-27T12:10:59.869Z,99212.33
2023-04-27T12:15:04.944Z,99218.98
2023-04-27T12:18:38.549Z,99229.86
2023-04-27T12:22:06.888Z,99223.58
2023-04-27T12:25:16.112Z,99221.33
2023-04-27T12:28:08.507Z,99217.17
2023-04-27T12:31:27.811Z,99209.13
2023-04-27T12:34:35.984Z,99219.44
2023-04-27T12:37:46.622Z,99223.64
2023-04-27T12:41:17.876Z,99219.64
2023-04-27T12:44:42.738Z,99229.94
2023-04-27T12:48:07.735Z,99236.16
2023-04-27T12:51:18.494Z,99242.71
2023-04-27T12:54:02.161Z,99248.47
2023-04-27T12:57:23.242Z,99250.27
2023-04-27T13:00:35.502Z,99247.17
2023-04-27T13:04:13.351Z,99249.98
2023-04-27T13:06:49.229Z,99253.98
2023-04-27T13:09:48.927Z,99259.09
2023-04-27T13:12:56.109Z,99251.85
2023-04-27T13:16:13.117Z,99249.02
2023-04-27T13:19:12.628Z,99242.11
2023-04-27T13:21:43.797Z,99239.15
2023-04-27T13:24:56.758Z,99229.25
2023-04-27T13:27:52.192Z,99228.39
2023-04-27T13:30:25.803Z,99214.05
2023-04-27T13:33:25.048Z,99209.11
2023-04-27T13:35:58.753Z,99203.23
2023-04-27T13:38:57.107Z,99209.86
2023-04-27T13:41:27.532Z,99224.46
2023-04-27T13:44:00.002Z,99232.06
2023-04-27T13:46:48.502Z,99223.17
2023-04-27T13:50:00.248Z,99230.29
2023-04-27T13:52:33.081Z,99231.88
2023-04-27T13:55:47.530Z,99235.83
2023-04-27T13:59:01.314Z,99230.58
2023-04-27T14:02:29.512Z,99225.16
2023-04-27T14:05:41.152Z,99240.91
2023-04-27T14:09:17.970Z,99239.70
2023-04-27T14:12:06.568Z,99233.96
2023-04-27T14:15:23.544Z,99225.28
2023-04-27T14:18:50.054Z,99227.20
2023-04-27T14:21:25.422Z,99226.05
2023-04-27T14:23:54.851Z,99226.38
2023-04-27T14:27:04.265Z,99221.52
2023-04-27T14:30:14.295Z,99231.15
2023-04-27T14:32:50.710Z,99236.66
2023-04-27T14:36:16.081Z,99239.27
2023-04-27T14:38:47.252Z,99237.73
2023-04-27T14:41:40.782Z,99249.11
2023-04-27T14:44:27.039Z,99255.96
2023-04-27T14:46:59.324Z,99260.76
2023-04-27T14:49:29.698Z,99258.27
2023-04-27T14:52:11.038Z,99239.59
2023-04-27T14:54:59.790Z,99214.39
2023-04-27T14:57:46.896Z,99138.20
2023-04-27T15:00:20.471Z,99021.55
2023-04-27T15:03:03.397Z,98907.08
2023-04-27T15:05:36.076Z,98831.25
2023-04-27T15:08:05.525Z,98769.21
2023-04-27T15:10:41.588Z,98698.57
2023-04-27T15:13:23.231Z,98659.64
2023-04-27T15:16:34.411Z,98607.52
2023-04-27T15:20:08.122Z,98594.23
2023-04-27T15:23:03.185Z,98575.14
2023-04-27T15:25:30.960Z,98586.02
2023-04-27T15:28:03.281Z,98577.09
2023-04-27T15:30:39.907Z,98575.79
2023-04-27T15:33:28.289Z,98571.15
2023-04-27T15:35:57.018Z,98567.98
2023-04-27T15:38:26.848Z,98569.21
2023-04-27T15:40:57.196Z,98567.26
2023-04-27T15:43:26.076Z,98564.23
2023-04-27T15:45:54.300Z,98565.63
2023-04-27T15:48:22.561Z,98567.65
2023-04-27T15:50:50.885Z,98553.41
2023-04-27T15:53:20.015Z,98555.18
2023-04-27T15:56:09.478Z,98553.56
2023-04-27T15:58:38.409Z,98551.95
2023-04-27T16:01:06.995Z,98552.58
2023-04-27T16:03:36.433Z,98548.09
2023-04-27T16:06:05.288Z,98555.54
2023-04-27T16:08:34.225Z,98548.46
2023-04-27T16:11:07.313Z,98544.29
2023-04-27T16:13:37.581Z,98551.98
2023-04-27T16:16:08.667Z,98550.02
2023-04-27T16:18:37.397Z,98542.09
2023-04-27T16:21:06.374Z,98547.81
2023-04-27T16:23:34.475Z,98548.38
2023-04-27T16:26:02.688Z,98548.80
2023-04-27T16:28:32.959Z,98538.94
2023-04-27T16:31:01.940Z,98534.65
2023-04-27T16:33:31.934Z,98533.27
2023-04-27T16:36:00.449Z,98553.66
2023-04-27T16:38:28.476Z,98556.23
2023-04-27T16:40:58.565Z,98545.13
2023-04-27T16:43:27.841Z,98543.04
2023-04-27T16:45:56.679Z,98545.80
2023-04-27T16:48:25.143Z,98539.09
2023-04-27T16:50:55.204Z,98535.41
2023-04-27T16:53:24.008Z,98535.59
2023-04-27T16:55:53.193Z,98537.53
2023-04-27T16:58:20.930Z,98544.48
2023-04-27T17:00:50.067Z,98549.27
2023-04-27T17:03:19.753Z,98547.84
2023-04-27T17:05:48.619Z,98538.54
2023-04-27T17:08:18.526Z,98529.16
2023-04-27T17:10:47.001Z,98529.32
2023-04-27T17:13:16.553Z,98527.00
2023-04-27T17:15:46.032Z,98505.82
2023-04-27T17:18:16.818Z,98503.52
2023-04-27T17:20:45.165Z,98486.74
2023-04-27T17:23:13.891Z,98475.27
2023-04-27T17:25:42.336Z,98458.80
2023-04-27T17:28:11.056Z,98443.77
2023-04-27T17:30:40.093Z,98421.85
2023-04-27T17:33:08.302Z,98413.42
2023-04-27T17:35:36.621Z,98405.27
2023-04-27T17:38:05.079Z,98404.23
2023-04-27T17:40:32.880Z,98402.33
2023-04-27T17:43:01.226Z,98407.70
2023-04-27T17:45:29.380Z,98406.60
2023-04-27T17:48:00.748Z,98405.58
2023-04-27T17:50:30.999Z,98411.90
2023-04-27T17:52:59.254Z,98412.66
2023-04-27T17:55:30.391Z,98409.78
2023-04-27T17:57:59.576Z,98406.66
2023-04-27T18:00:28.930Z,98403.61
2023-04-27T18:03:00.703Z,98395.30
2023-04-27T18:05:29.052Z,98391.80
2023-04-27T18:07:57.173Z,98388.52
2023-04-27T18:10:27.184Z,98392.94
2023-04-27T18:12:56.417Z,98395.66
2023-04-27T18:15:24.720Z,98403.84
2023-04-27T18:17:53.512Z,98414.89
2023-04-27T18:20:23.338Z,98428.48
2023-04-27T18:23:25.398Z,98426.41
2023-04-27T18:27:20.352Z,98413.86
2023-04-27T18:30:57.062Z,98395.45
2023-04-27T18:33:51.774Z,98374.08
2023-04-27T18:36:51.601Z,98348.13
2023-04-27T18:40:33.226Z,98305.13
2023-04-27T18:43:58.411Z,98286.16
2023-04-27T18:46:51.080Z,98274.06
2023-04-27T18:49:46.763Z,98267.25
2023-04-27T18:52:19.192Z,98264.75
2023-04-27T18:54:48.312Z,98257.39
2023-04-27T18:57:18.946Z,98252.02
2023-04-27T19:00:19.619Z,98224.86
2023-04-27T19:06:24.954Z,98210.17
2023-04-27T19:09:13.315Z,98184.31
2023-04-27T19:12:35.263Z,98158.82
2023-04-27T19:16:07.081Z,98120.53
2023-04-27T19:19:21.790Z,98066.64
2023-04-27T19:22:53.352Z,98017.57
2023-04-27T19:25:23.708Z,97996.22
2023-04-27T19:27:53.592Z,97986.02
2023-04-27T19:30:50.431Z,97974.30
2023-04-27T19:38:43.489Z,97892.96
2023-04-27T19:41:54.592Z,97871.70
2023-04-27T19:45:25.320Z,97821.94
2023-04-27T19:48:42.326Z,97816.05
2023-04-27T19:52:35.475Z,97773.33
2023-04-27T19:55:44.613Z,97729.29
2023-04-27T19:58:37.053Z,97742.15
2023-04-27T20:01:15.169Z,97756.30
2023-04-27T20:04:23.562Z,97771.42
2023-04-27T20:07:31.587Z,97748.69
2023-04-27T20:10:00.704Z,97736.16
2023-04-27T20:15:17.951Z,97734.48
2023-04-27T20:17:48.115Z,97738.89
2023-04-27T20:20:18.329Z,97738.36
2023-04-27T20:22:52.406Z,97706.69
2023-04-27T20:25:58.923Z,97674.66
2023-04-27T20:28:49.104Z,97640.67
2023-04-27T20:31:25.638Z,97610.25
2023-04-27T20:34:21.127Z,97590.03
2023-04-27T20:36:54.256Z,97563.26
2023-04-27T20:39:23.026Z,97553.25
2023-04-27T20:41:54.502Z,97527.63
2023-04-27T20:44:32.495Z,97514.17
2023-04-27T20:47:01.329Z,97503.80
2023-04-27T20:49:47.944Z,97497.04
2023-04-27T20:52:18.019Z,97498.05
2023-04-27T20:54:45.859Z,97513.63
2023-04-27T20:57:14.979Z,97528.67
2023-04-27T20:59:45.695Z,97547.71
2023-04-27T21:02:17.013Z,97562.98
2023-04-27T21:04:52.165Z,97570.94
2023-04-27T21:07:23.117Z,97575.67
2023-04-27T21:09:51.571Z,97576.64
2023-04-27T21:12:34.404Z,97582.93
2023-04-27T21:15:03.541Z,97584.41
2023-04-27T21:17:38.668Z,97588.06
2023-04-27T21:20:11.814Z,97592.54
2023-04-27T21:22:57.133Z,97600.84
2023-04-27T21:25:26.017Z,97584.08
2023-04-27T21:27:56.696Z,97579.50
2023-04-27T21:30:26.433Z,97570.11
2023-04-27T21:32:56.626Z,97574.37
2023-04-27T21:35:25.294Z,97570.23
2023-04-27T21:38:05.176Z,97568.80
2023-04-27T21:40:35.528Z,97566.91
2023-04-27T21:43:10.009Z,97559.41
2023-04-27T21:45:55.853Z,97551.05
2023-04-27T21:48:43.446Z,97551.77
2023-04-27T21:51:15.624Z,97537.36
2023-04-27T21:54:05.111Z,97536.00
2023-04-27T21:56:34.193Z,97528.16
2023-04-27T21:59:03.898Z,97522.29
2023-04-27T22:01:32.204Z,97521.09
2023-04-27T22:04:05.206Z,97517.05
2023-04-27T22:06:51.152Z,97505.61
2023-04-27T22:09:19.769Z,97506.55
2023-04-27T22:11:48.466Z,97508.16
2023-04-27T22:14:35.385Z,97503.80
2023-04-27T22:17:04.222Z,97499.20
2023-04-27T22:19:32.535Z,97501.16
2023-04-27T22:22:04.740Z,97492.39
2023-04-27T22:24:35.190Z,97485.40
2023-04-27T22:27:04.158Z,97483.25
2023-04-27T22:29:36.993Z,97484.23
2023-04-27T22:32:24.333Z,97479.87
2023-04-27T22:34:52.597Z,97471.87
2023-04-27T22:37:31.174Z,97491.17
2023-04-27T22:40:01.005Z,97491.59
2023-04-27T22:42:30.232Z,97499.61
2023-04-27T22:44:59.032Z,97497.09
2023-04-27T22:47:33.725Z,97486.60
2023-04-27T22:50:04.943Z,97486.56
2023-04-27T22:52:34.419Z,97477.81
2023-04-27T22:55:03.444Z,97486.17
2023-04-27T22:57:32.120Z,97485.58
2023-04-27T23:00:00.661Z,97484.48
2023-04-27T23:02:35.339Z,97478.75
2023-04-27T23:05:11.112Z,97476.01
2023-04-27T23:07:45.704Z,97471.27
2023-04-27T23:10:15.377Z,97460.49
2023-04-27T23:12:46.522Z,97462.98
2023-04-27T23:15:15.930Z,97473.40
2023-04-27T23:17:46.087Z,97474.73
2023-04-27T23:20:27.880Z,97473.44
2023-04-27T23:22:57.522Z,97468.02
2023-04-27T23:25:26.304Z,97463.91
2023-04-27T23:27:59.159Z,97464.33
2023-04-27T23:30:28.032Z,97466.25
2023-04-27T23:32:56.994Z,97465.96
2023-04-27T23:35:28.885Z,97463.17
2023-04-27T23:38:05.010Z,97465.08
2023-04-27T23:40:35.171Z,97477.49
2023-04-27T23:43:04.005Z,97466.30
2023-04-27T23:45:34.431Z,97466.17
2023-04-27T23:48:12.746Z,97466.09
2023-04-27T23:51:03.526Z,97458.19
2023-04-27T23:53:33.376Z,97453.08
2023-04-27T23:56:01.671Z,97447.96
2023-04-27T23:58:30.465Z,97436.55
